Terminal Aerodrome Forecast
Issued by NWS

Home | Current Version | Previous Version | Graphics & Text | Print | Product List | Glossary On
Versions: 1 2 3 4 5 6 7 8 9 10 11 12 13
000
FTUS45 KGGW 181120
TAFOLF
TAF
KOLF 181120Z 1812/1912 04018KT 1SM -SN BLSN OVC020
     FM181300 04013KT 3SM -SN BLSN OVC020
     FM181800 03011KT P6SM BKN020
     FM190100 35005KT P6SM OVC040=

USA.gov is the U.S. government's official web portal to all federal, state and local government web resources and services.